createdAt,value
2024-01-31T00:01:42.375Z,23.45
2024-01-31T00:04:10.964Z,27.55
2024-01-31T00:06:39.370Z,25.00
2024-01-31T00:09:07.783Z,26.45
2024-01-31T00:11:35.066Z,25.10
2024-01-31T00:14:08.782Z,26.30
2024-01-31T00:16:37.272Z,24.92
2024-01-31T00:19:05.962Z,27.30
2024-01-31T00:21:34.435Z,26.73
2024-01-31T00:24:02.910Z,27.75
2024-01-31T00:26:31.282Z,25.95
2024-01-31T00:28:59.877Z,24.83
2024-01-31T00:31:29.906Z,26.70
2024-01-31T00:33:58.525Z,27.67
2024-01-31T00:36:26.867Z,27.67
2024-01-31T00:38:55.442Z,27.63
2024-01-31T00:41:23.871Z,27.23
2024-01-31T00:43:55.092Z,25.33
2024-01-31T00:46:23.449Z,27.02
2024-01-31T00:48:53.356Z,28.40
2024-01-31T00:51:21.806Z,27.23
2024-01-31T00:53:50.048Z,27.20
2024-01-31T00:56:18.350Z,27.50
2024-01-31T00:58:46.567Z,26.40
2024-01-31T01:01:15.046Z,27.83
2024-01-31T01:03:44.729Z,27.40
2024-01-31T01:06:14.438Z,27.48
2024-01-31T01:08:42.995Z,28.02
2024-01-31T01:11:11.692Z,26.60
2024-01-31T01:13:40.020Z,27.40
2024-01-31T01:16:08.637Z,27.02
2024-01-31T01:18:37.154Z,26.75
2024-01-31T01:21:06.283Z,25.83
2024-01-31T01:23:35.962Z,28.02
2024-01-31T01:26:04.408Z,25.88
2024-01-31T01:28:32.851Z,26.83
2024-01-31T01:31:05.134Z,26.45
2024-01-31T01:33:33.631Z,27.40
2024-01-31T01:36:04.834Z,28.45
2024-01-31T01:38:33.649Z,27.60
2024-01-31T01:41:03.676Z,27.10
2024-01-31T01:43:32.130Z,28.45
2024-01-31T01:46:12.349Z,27.92
2024-01-31T01:48:41.116Z,27.15
2024-01-31T01:51:09.646Z,26.77
2024-01-31T01:53:38.518Z,28.77
2024-01-31T01:56:10.894Z,27.33
2024-01-31T01:58:39.707Z,28.88
2024-01-31T02:01:09.102Z,28.00
2024-01-31T02:03:37.867Z,25.63
2024-01-31T02:06:06.836Z,28.48
2024-01-31T02:08:35.179Z,26.00
2024-01-31T02:11:04.785Z,27.40
2024-01-31T02:13:34.662Z,28.02
2024-01-31T02:16:02.984Z,28.98
2024-01-31T02:18:31.645Z,27.08
2024-01-31T02:21:00.072Z,28.35
2024-01-31T02:23:29.998Z,27.60
2024-01-31T02:25:58.423Z,28.80
2024-01-31T02:28:26.957Z,27.20
2024-01-31T02:30:57.087Z,26.60
2024-01-31T02:33:25.681Z,28.33
2024-01-31T02:35:54.569Z,26.90
2024-01-31T02:38:22.993Z,28.08
2024-01-31T02:40:52.748Z,25.70
2024-01-31T02:43:21.268Z,29.05
2024-01-31T02:45:49.564Z,26.40
2024-01-31T02:48:17.864Z,27.30
2024-01-31T02:50:46.546Z,27.48
2024-01-31T02:53:14.887Z,28.80
2024-01-31T02:55:43.238Z,30.77
2024-01-31T02:58:13.394Z,28.67
2024-01-31T03:00:41.694Z,26.50
2024-01-31T03:03:10.194Z,28.00
2024-01-31T03:05:38.551Z,27.58
2024-01-31T03:08:07.207Z,29.75
2024-01-31T03:10:35.668Z,26.65
2024-01-31T03:13:03.968Z,27.70
2024-01-31T03:15:33.674Z,28.13
2024-01-31T03:18:02.220Z,28.25
2024-01-31T03:20:30.804Z,27.50
2024-01-31T03:22:59.331Z,27.98
2024-01-31T03:25:27.701Z,27.52
2024-01-31T03:27:56.101Z,29.02
2024-01-31T03:30:24.457Z,30.48
2024-01-31T03:32:54.167Z,27.58
2024-01-31T03:35:23.539Z,27.45
2024-01-31T03:37:52.024Z,28.90
2024-01-31T03:40:23.131Z,29.05
2024-01-31T03:42:52.166Z,26.98
2024-01-31T03:45:20.731Z,27.02
2024-01-31T03:47:52.254Z,27.83
2024-01-31T03:50:21.993Z,29.33
2024-01-31T03:52:53.024Z,29.45
2024-01-31T03:55:21.470Z,27.15
2024-01-31T03:57:49.838Z,28.15
2024-01-31T04:00:18.789Z,27.73
2024-01-31T04:02:47.129Z,28.90
2024-01-31T04:05:16.799Z,28.58
2024-01-31T04:07:47.331Z,30.10
2024-01-31T04:10:16.421Z,26.95
2024-01-31T04:12:44.972Z,29.08
2024-01-31T04:15:13.574Z,28.88
2024-01-31T04:17:41.975Z,27.13
2024-01-31T04:20:12.686Z,27.48
2024-01-31T04:22:41.359Z,29.40
2024-01-31T04:25:11.179Z,25.83
2024-01-31T04:27:39.588Z,27.92
2024-01-31T04:30:12.310Z,27.65
2024-01-31T04:32:40.678Z,27.50
2024-01-31T04:35:12.180Z,29.00
2024-01-31T04:37:41.187Z,26.45
2024-01-31T04:40:12.154Z,28.25
2024-01-31T04:42:41.159Z,29.27
2024-01-31T04:45:10.845Z,28.33
2024-01-31T04:47:39.854Z,26.13
2024-01-31T04:50:09.283Z,27.60
2024-01-31T04:52:38.306Z,28.90
2024-01-31T04:55:07.452Z,28.50
2024-01-31T04:57:37.183Z,28.35
2024-01-31T05:00:07.006Z,27.05
2024-01-31T05:02:35.355Z,27.42
2024-01-31T05:05:04.126Z,27.90
2024-01-31T05:07:32.561Z,25.80
2024-01-31T05:10:01.181Z,28.15
2024-01-31T05:12:29.642Z,27.52
2024-01-31T05:15:02.037Z,27.65
2024-01-31T05:17:30.336Z,27.95
2024-01-31T05:19:58.821Z,26.83
2024-01-31T05:22:28.054Z,25.88
2024-01-31T05:24:59.494Z,26.25
2024-01-31T05:27:27.878Z,26.25
2024-01-31T05:29:56.136Z,27.55
2024-01-31T05:32:26.058Z,27.50
2024-01-31T05:34:54.671Z,26.88
2024-01-31T05:37:23.272Z,27.20
2024-01-31T05:39:51.554Z,27.33
2024-01-31T05:42:20.336Z,25.27
2024-01-31T05:44:48.599Z,26.42
2024-01-31T05:47:17.080Z,25.70
2024-01-31T05:49:47.091Z,26.45
2024-01-31T05:52:15.716Z,26.55
2024-01-31T05:54:44.216Z,25.88
2024-01-31T05:57:12.574Z,26.00
2024-01-31T05:59:43.143Z,26.23
2024-01-31T06:02:12.015Z,26.15
2024-01-31T06:04:41.723Z,26.40
2024-01-31T06:07:13.646Z,26.15
2024-01-31T06:09:42.453Z,26.48
2024-01-31T06:12:10.902Z,27.15
2024-01-31T06:14:39.200Z,25.40
2024-01-31T06:17:07.448Z,25.85
2024-01-31T06:19:35.959Z,25.15
2024-01-31T06:22:04.465Z,26.77
2024-01-31T06:24:34.432Z,29.48
2024-01-31T06:27:02.960Z,26.25
2024-01-31T06:29:31.693Z,27.63
2024-01-31T06:32:02.094Z,27.85
2024-01-31T06:34:33.570Z,27.70
2024-01-31T06:37:02.001Z,27.50
2024-01-31T06:39:30.287Z,29.17
2024-01-31T06:42:00.087Z,30.13
2024-01-31T06:44:28.852Z,28.45
2024-01-31T06:46:57.422Z,27.67
2024-01-31T06:49:26.082Z,28.95
2024-01-31T06:51:54.517Z,28.95
2024-01-31T06:54:23.069Z,28.15
2024-01-31T06:56:54.295Z,35.42
2024-01-31T06:59:23.980Z,29.60
2024-01-31T07:01:52.495Z,30.27
2024-01-31T07:04:22.237Z,29.88
2024-01-31T07:06:53.552Z,34.30
2024-01-31T07:09:22.098Z,30.20
2024-01-31T07:11:50.409Z,29.38
2024-01-31T07:14:19.133Z,29.00
2024-01-31T07:16:49.074Z,27.65
2024-01-31T07:19:17.936Z,27.92
2024-01-31T07:21:49.683Z,31.05
2024-01-31T07:24:24.870Z,30.30
2024-01-31T07:26:58.407Z,26.92
2024-01-31T07:29:26.686Z,30.80
2024-01-31T07:31:56.439Z,27.52
2024-01-31T07:34:27.799Z,29.05
2024-01-31T07:36:56.676Z,28.60
2024-01-31T07:39:25.028Z,27.27
2024-01-31T07:41:53.833Z,26.60
2024-01-31T07:44:22.192Z,26.90
2024-01-31T07:46:50.846Z,29.85
2024-01-31T07:49:21.111Z,27.65
2024-01-31T07:51:54.074Z,27.05
2024-01-31T07:54:22.730Z,28.08
2024-01-31T07:56:51.214Z,27.15
2024-01-31T07:59:19.583Z,27.67
2024-01-31T08:01:48.095Z,28.08
2024-01-31T08:04:16.489Z,25.70
2024-01-31T08:06:46.483Z,26.13
2024-01-31T08:09:22.492Z,26.27
2024-01-31T08:11:54.229Z,24.85
2024-01-31T08:14:22.513Z,24.25
2024-01-31T08:16:52.745Z,26.23
2024-01-31T08:19:21.319Z,25.65
2024-01-31T08:21:51.695Z,25.33
2024-01-31T08:24:21.305Z,24.30
2024-01-31T08:26:49.548Z,24.63
2024-01-31T08:29:23.679Z,23.73
2024-01-31T08:31:56.084Z,25.02
2024-01-31T08:34:27.412Z,23.27
2024-01-31T08:36:59.492Z,26.95
2024-01-31T08:39:27.811Z,23.80
2024-01-31T08:41:56.202Z,23.38
2024-01-31T08:44:24.554Z,24.63
2024-01-31T08:47:04.286Z,23.48
2024-01-31T08:49:45.754Z,27.05
2024-01-31T08:52:15.614Z,25.90
2024-01-31T08:54:44.133Z,28.48
2024-01-31T08:57:16.716Z,25.38
2024-01-31T08:59:46.605Z,23.15
2024-01-31T09:02:15.016Z,22.73
2024-01-31T09:04:45.390Z,21.33
2024-01-31T09:07:16.242Z,23.38
2024-01-31T09:09:53.499Z,23.52
2024-01-31T09:12:21.947Z,21.05
2024-01-31T09:14:50.298Z,22.83
2024-01-31T09:17:18.652Z,23.35
2024-01-31T09:19:47.829Z,23.30
2024-01-31T09:22:18.642Z,21.42
2024-01-31T09:24:47.035Z,22.40
2024-01-31T09:27:17.541Z,22.17
2024-01-31T09:29:45.801Z,22.17
2024-01-31T09:32:16.083Z,22.85
2024-01-31T09:34:44.812Z,21.45
2024-01-31T09:37:13.506Z,20.85
2024-01-31T09:39:43.389Z,19.90
2024-01-31T09:42:14.028Z,20.50
2024-01-31T09:44:43.744Z,20.48
2024-01-31T09:47:14.237Z,20.13
2024-01-31T09:49:45.471Z,18.50
2024-01-31T09:52:16.383Z,18.67
2024-01-31T09:54:48.977Z,19.73
2024-01-31T09:57:17.317Z,18.17
2024-01-31T09:59:46.956Z,17.80
2024-01-31T10:02:16.727Z,17.55
2024-01-31T10:04:48.596Z,18.55
2024-01-31T10:07:25.151Z,17.02
2024-01-31T10:09:56.408Z,17.98
2024-01-31T10:12:25.125Z,17.90
2024-01-31T10:14:53.791Z,23.42
2024-01-31T10:17:22.459Z,22.48
2024-01-31T10:19:51.571Z,20.15
2024-01-31T10:22:20.819Z,17.77
2024-01-31T10:24:51.705Z,18.60
2024-01-31T10:27:23.240Z,19.08
2024-01-31T10:29:51.656Z,18.95
2024-01-31T10:32:22.498Z,16.70
2024-01-31T10:35:11.050Z,16.40
2024-01-31T10:40:13.331Z,16.83
2024-01-31T10:42:45.291Z,14.98
2024-01-31T10:45:14.111Z,15.65
2024-01-31T10:47:45.710Z,15.68
2024-01-31T10:50:14.984Z,16.40
2024-01-31T10:52:44.191Z,15.88
2024-01-31T10:55:13.618Z,22.63
2024-01-31T10:57:44.323Z,36.42
2024-01-31T11:00:24.575Z,25.70
2024-01-31T11:02:53.235Z,42.30
2024-01-31T11:05:24.819Z,58.75
2024-01-31T11:07:53.335Z,37.20
2024-01-31T11:10:23.342Z,34.13
2024-01-31T11:13:03.141Z,44.72
2024-01-31T11:15:32.375Z,72.57
2024-01-31T11:18:07.967Z,43.08
2024-01-31T11:20:37.800Z,34.80
2024-01-31T11:23:06.738Z,23.55
2024-01-31T11:25:36.679Z,23.40
2024-01-31T11:28:07.998Z,19.85
2024-01-31T11:30:36.310Z,19.50
2024-01-31T11:33:05.569Z,19.25
2024-01-31T11:35:34.230Z,20.17
2024-01-31T11:38:03.079Z,18.88
2024-01-31T11:40:31.791Z,20.23
2024-01-31T11:43:00.294Z,28.92
2024-01-31T11:45:30.094Z,38.72
2024-01-31T11:48:00.085Z,62.65
2024-01-31T11:50:28.996Z,69.07
2024-01-31T11:52:58.991Z,31.52
2024-01-31T11:55:31.071Z,20.60
2024-01-31T11:57:59.563Z,21.98
2024-01-31T12:00:30.739Z,18.23
2024-01-31T12:02:59.166Z,19.52
2024-01-31T12:05:27.705Z,19.10
2024-01-31T12:07:59.831Z,19.17
2024-01-31T12:10:28.817Z,18.52
2024-01-31T12:12:59.502Z,18.92
2024-01-31T12:15:31.870Z,17.80
2024-01-31T12:18:03.933Z,17.85
2024-01-31T12:20:33.068Z,18.02
2024-01-31T12:23:01.750Z,18.73
2024-01-31T12:25:30.138Z,17.35
2024-01-31T12:27:58.646Z,16.80
2024-01-31T12:30:27.161Z,18.58
2024-01-31T12:32:57.078Z,17.40
2024-01-31T12:35:28.662Z,16.73
2024-01-31T12:37:57.172Z,16.60
2024-01-31T12:40:27.073Z,15.40
2024-01-31T12:43:00.580Z,15.63
2024-01-31T12:45:29.404Z,14.20
2024-01-31T12:47:59.494Z,14.68
2024-01-31T12:50:28.750Z,14.05
2024-01-31T12:52:57.390Z,13.95
2024-01-31T12:55:27.668Z,14.00
2024-01-31T12:57:59.089Z,13.32
2024-01-31T13:00:27.424Z,12.88
2024-01-31T13:02:56.112Z,11.60
2024-01-31T13:05:26.305Z,11.13
2024-01-31T13:07:58.213Z,8.75
2024-01-31T13:10:28.818Z,9.52
2024-01-31T13:12:59.279Z,10.20
2024-01-31T13:15:28.706Z,9.85
2024-01-31T13:17:57.475Z,11.05
2024-01-31T13:20:27.242Z,10.70
2024-01-31T13:22:55.542Z,11.65
2024-01-31T13:25:25.753Z,10.60
2024-01-31T13:27:54.084Z,10.25
2024-01-31T13:30:22.934Z,9.95
2024-01-31T13:32:51.764Z,9.70
2024-01-31T13:35:20.657Z,9.85
2024-01-31T13:37:50.598Z,11.38
2024-01-31T13:40:19.290Z,12.77
2024-01-31T13:42:52.135Z,13.50
2024-01-31T13:45:22.980Z,14.50
2024-01-31T13:48:00.777Z,14.85
2024-01-31T13:50:29.520Z,16.00
2024-01-31T13:52:59.588Z,15.10
2024-01-31T13:55:32.486Z,16.15
2024-01-31T13:58:00.903Z,17.25
2024-01-31T14:00:29.227Z,17.33
2024-01-31T14:03:00.597Z,16.80
2024-01-31T14:05:31.236Z,16.85
2024-01-31T14:08:04.301Z,16.67
2024-01-31T14:10:32.581Z,16.40
2024-01-31T14:13:00.922Z,16.90
2024-01-31T14:15:32.071Z,15.82
2024-01-31T14:18:04.365Z,16.92
2024-01-31T14:20:33.616Z,17.80
2024-01-31T14:23:14.330Z,20.88
2024-01-31T14:25:57.225Z,21.80
2024-01-31T14:28:28.522Z,23.98
2024-01-31T14:31:02.800Z,22.00
2024-01-31T14:33:31.761Z,22.70
2024-01-31T14:36:00.717Z,21.23
2024-01-31T14:38:33.843Z,23.73
2024-01-31T14:41:04.352Z,26.45
2024-01-31T14:43:34.349Z,31.85
2024-01-31T14:46:02.926Z,36.58
2024-01-31T14:48:31.446Z,34.25
2024-01-31T14:51:00.154Z,23.88
2024-01-31T14:53:30.203Z,20.50
2024-01-31T14:55:58.500Z,20.38
2024-01-31T14:58:26.957Z,21.20
2024-01-31T15:00:55.243Z,20.73
2024-01-31T15:03:24.008Z,21.77
2024-01-31T15:05:52.521Z,24.60
2024-01-31T15:08:20.908Z,25.13
2024-01-31T15:10:51.066Z,21.95
2024-01-31T15:13:19.474Z,20.98
2024-01-31T15:15:47.910Z,21.92
2024-01-31T15:18:16.584Z,21.52
2024-01-31T15:20:45.208Z,21.52
2024-01-31T15:23:14.264Z,21.75
2024-01-31T15:25:42.608Z,22.15
2024-01-31T15:28:13.055Z,21.30
2024-01-31T15:30:41.494Z,23.47
2024-01-31T15:33:09.955Z,27.30
2024-01-31T15:35:40.645Z,21.58
2024-01-31T15:38:09.304Z,22.85
2024-01-31T15:40:37.612Z,27.77
2024-01-31T15:43:06.350Z,33.10
2024-01-31T15:45:36.110Z,37.08
2024-01-31T15:48:05.035Z,39.15
2024-01-31T15:50:33.507Z,26.80
2024-01-31T15:53:03.701Z,26.40
2024-01-31T15:55:32.215Z,28.00
2024-01-31T15:58:00.562Z,23.30
2024-01-31T16:00:30.040Z,22.60
2024-01-31T16:03:08.150Z,25.27
2024-01-31T16:05:36.586Z,30.45
2024-01-31T16:08:05.269Z,32.72
2024-01-31T16:10:33.933Z,41.97
2024-01-31T16:13:02.448Z,27.95
2024-01-31T16:15:41.421Z,32.13
2024-01-31T16:18:12.329Z,39.22
2024-01-31T16:20:45.549Z,25.33
2024-01-31T16:23:15.917Z,24.30
2024-01-31T16:25:46.327Z,27.85
2024-01-31T16:28:14.804Z,31.13
2024-01-31T16:30:43.148Z,39.47
2024-01-31T16:33:13.140Z,35.25
2024-01-31T16:35:42.034Z,32.40
2024-01-31T16:38:10.544Z,21.40
2024-01-31T16:40:39.276Z,31.77
2024-01-31T16:43:07.752Z,19.23
2024-01-31T16:45:37.804Z,20.45
2024-01-31T16:48:07.358Z,22.00
2024-01-31T16:50:40.408Z,26.50
2024-01-31T16:53:11.578Z,21.70
2024-01-31T16:55:43.428Z,24.15
2024-01-31T16:58:11.914Z,23.27
2024-01-31T17:00:40.188Z,39.45
2024-01-31T17:03:08.599Z,26.67
2024-01-31T17:05:36.985Z,24.00
2024-01-31T17:08:07.325Z,24.23
2024-01-31T17:10:35.789Z,27.55
2024-01-31T17:13:06.872Z,24.67
2024-01-31T17:15:35.265Z,32.35
2024-01-31T17:18:04.990Z,27.42
2024-01-31T17:20:33.636Z,23.63
2024-01-31T17:23:02.645Z,26.05
2024-01-31T17:25:33.029Z,24.75
2024-01-31T17:28:01.620Z,23.60
2024-01-31T17:30:29.956Z,28.30
2024-01-31T17:32:58.713Z,24.42
2024-01-31T17:35:34.569Z,22.90
2024-01-31T17:38:03.287Z,19.98
2024-01-31T17:40:34.037Z,23.40
2024-01-31T17:43:02.450Z,21.15
2024-01-31T17:45:33.218Z,20.17
2024-01-31T17:48:01.737Z,19.27
2024-01-31T17:50:32.463Z,20.63
2024-01-31T17:53:00.798Z,19.00
2024-01-31T17:55:29.382Z,21.10
2024-01-31T17:57:59.392Z,19.90
2024-01-31T18:00:27.745Z,19.77
2024-01-31T18:02:56.622Z,23.35
2024-01-31T18:05:25.042Z,22.48
2024-01-31T18:07:53.339Z,19.92
2024-01-31T18:10:21.670Z,20.00
2024-01-31T18:12:53.331Z,19.67
2024-01-31T18:15:28.655Z,19.95
2024-01-31T18:17:57.669Z,19.75
2024-01-31T18:20:26.238Z,19.92
2024-01-31T18:22:54.633Z,27.98
2024-01-31T18:25:23.045Z,30.17
2024-01-31T18:27:56.655Z,29.83
2024-01-31T18:30:29.500Z,29.27
2024-01-31T18:33:00.958Z,19.63
2024-01-31T18:35:29.310Z,19.48
2024-01-31T18:37:57.624Z,28.73
2024-01-31T18:40:25.984Z,19.83
2024-01-31T18:42:54.404Z,19.67
2024-01-31T18:45:23.225Z,21.30
2024-01-31T18:47:56.732Z,24.17
2024-01-31T18:50:28.233Z,27.35
2024-01-31T18:52:59.373Z,24.05
2024-01-31T18:55:28.334Z,24.65
2024-01-31T18:57:59.237Z,22.90
2024-01-31T19:00:27.549Z,21.20
2024-01-31T19:02:57.941Z,23.92
2024-01-31T19:05:28.852Z,28.13
2024-01-31T19:07:57.256Z,27.40
2024-01-31T19:10:25.923Z,25.60
2024-01-31T19:12:54.407Z,30.92
2024-01-31T19:15:23.377Z,26.55
2024-01-31T19:17:53.150Z,26.95
2024-01-31T19:20:24.274Z,25.13
2024-01-31T19:22:53.170Z,25.33
2024-01-31T19:25:21.684Z,23.40
2024-01-31T19:27:59.137Z,26.70
2024-01-31T19:30:27.796Z,27.50
2024-01-31T19:32:56.907Z,27.95
2024-01-31T19:35:29.828Z,32.78
2024-01-31T19:37:58.429Z,32.30
2024-01-31T19:40:32.853Z,29.77
2024-01-31T19:43:13.200Z,28.58
2024-01-31T19:46:07.970Z,25.35
2024-01-31T19:49:10.524Z,26.17
2024-01-31T19:51:55.809Z,27.95
2024-01-31T19:54:45.903Z,26.70
2024-01-31T19:57:29.490Z,29.35
2024-01-31T20:00:09.047Z,29.75
2024-01-31T20:02:37.700Z,28.00
2024-01-31T20:05:06.821Z,27.50
2024-01-31T20:07:42.879Z,28.15
2024-01-31T20:10:31.900Z,27.80
2024-01-31T20:13:06.589Z,31.83
2024-01-31T20:15:38.228Z,33.00
2024-01-31T20:18:06.980Z,32.85
2024-01-31T20:20:36.488Z,33.60
2024-01-31T20:23:06.335Z,33.92
2024-01-31T20:25:34.890Z,36.72
2024-01-31T20:28:03.283Z,33.65
2024-01-31T20:30:37.248Z,32.75
2024-01-31T20:33:07.928Z,35.25
2024-01-31T20:35:37.761Z,32.72
2024-01-31T20:38:07.982Z,33.00
2024-01-31T20:40:36.754Z,34.15
2024-01-31T20:43:05.962Z,30.90
2024-01-31T20:45:43.058Z,33.90
2024-01-31T20:48:17.355Z,35.65
2024-01-31T20:50:48.830Z,30.20
2024-01-31T20:53:18.628Z,33.10
2024-01-31T20:55:49.964Z,34.10
2024-01-31T20:58:21.768Z,31.08
2024-01-31T21:00:53.444Z,29.05
2024-01-31T21:03:22.107Z,28.67
2024-01-31T21:05:51.818Z,31.90
2024-01-31T21:08:22.112Z,31.90
2024-01-31T21:10:50.518Z,31.50
2024-01-31T21:13:20.634Z,27.85
2024-01-31T21:16:00.417Z,32.15
2024-01-31T21:18:31.458Z,32.88
2024-01-31T21:21:00.324Z,32.70
2024-01-31T21:23:30.601Z,32.17
2024-01-31T21:25:59.359Z,31.48
2024-01-31T21:28:28.333Z,32.20
2024-01-31T21:30:56.917Z,31.60
2024-01-31T21:33:27.902Z,31.70
2024-01-31T21:36:00.523Z,31.52
2024-01-31T21:38:31.677Z,31.40
2024-01-31T21:41:01.078Z,31.42
2024-01-31T21:43:29.821Z,32.47
2024-01-31T21:45:58.196Z,31.13
2024-01-31T21:48:31.246Z,31.83
2024-01-31T21:51:02.727Z,31.48
2024-01-31T21:53:32.761Z,32.03
2024-01-31T21:56:01.262Z,29.70
2024-01-31T21:58:29.606Z,27.73
2024-01-31T22:00:58.176Z,29.17
2024-01-31T22:05:55.920Z,29.45
2024-01-31T22:08:24.616Z,31.35
2024-01-31T22:10:57.450Z,31.05
2024-01-31T22:13:34.746Z,27.23
2024-01-31T22:16:05.835Z,27.42
2024-01-31T22:18:34.491Z,28.58
2024-01-31T22:21:03.337Z,27.40
2024-01-31T22:23:31.782Z,30.25
2024-01-31T22:26:02.626Z,28.80
2024-01-31T22:28:31.040Z,27.42
2024-01-31T22:30:59.563Z,28.20
2024-01-31T22:33:28.086Z,29.60
2024-01-31T22:35:56.833Z,29.50
2024-01-31T22:38:25.737Z,29.08
2024-01-31T22:40:57.021Z,30.63
2024-01-31T22:43:26.936Z,29.95
2024-01-31T22:46:09.305Z,28.75
2024-01-31T22:48:40.860Z,28.58
2024-01-31T22:51:09.828Z,30.75
2024-01-31T22:53:41.279Z,30.40
2024-01-31T22:56:11.514Z,27.08
2024-01-31T22:58:41.266Z,29.75
2024-01-31T23:01:12.887Z,28.17
2024-01-31T23:03:41.988Z,28.83
2024-01-31T23:06:10.793Z,29.00
2024-01-31T23:08:39.488Z,28.05
2024-01-31T23:11:08.199Z,29.27
2024-01-31T23:13:39.491Z,29.65
2024-01-31T23:16:09.429Z,28.10
2024-01-31T23:18:37.945Z,28.10
2024-01-31T23:21:07.223Z,26.60
2024-01-31T23:23:35.957Z,27.35
2024-01-31T23:26:04.591Z,27.88
2024-01-31T23:28:32.918Z,27.70
2024-01-31T23:31:01.404Z,27.92
2024-01-31T23:33:31.577Z,26.70
2024-01-31T23:36:00.150Z,23.95
2024-01-31T23:38:31.301Z,26.33
2024-01-31T23:40:59.662Z,25.23
2024-01-31T23:43:31.014Z,24.92
2024-01-31T23:45:59.415Z,24.52
2024-01-31T23:48:28.272Z,26.05
2024-01-31T23:50:58.419Z,24.52
2024-01-31T23:53:30.917Z,22.23
2024-01-31T23:55:59.674Z,25.40
2024-01-31T23:58:27.987Z,22.00
